createdAt,value
2018-11-03T00:00:56.579Z,23.10
2018-11-03T00:03:25.633Z,21.80
2018-11-03T00:05:54.689Z,23.60
2018-11-03T00:08:23.749Z,21.43
2018-11-03T00:10:52.821Z,21.37
2018-11-03T00:13:21.900Z,22.10
2018-11-03T00:15:51.881Z,23.43
2018-11-03T00:18:20.936Z,21.87
2018-11-03T00:23:25.757Z,27.65
2018-11-03T00:25:54.856Z,23.97
2018-11-03T00:28:24.016Z,23.47
2018-11-03T00:30:53.135Z,22.00
2018-11-03T00:33:22.160Z,25.37
2018-11-03T00:35:51.237Z,22.73
2018-11-03T00:38:21.252Z,22.40
2018-11-03T00:40:50.301Z,20.93
2018-11-03T00:45:55.085Z,26.90
2018-11-03T00:48:24.139Z,27.00
2018-11-03T00:53:28.911Z,26.80
2018-11-03T00:58:33.659Z,24.30
2018-11-03T01:03:38.397Z,25.62
2018-11-03T01:08:43.154Z,27.70
2018-11-03T01:13:47.899Z,24.92
2018-11-03T01:18:55.171Z,26.75
2018-11-03T01:21:24.262Z,28.20
2018-11-03T01:23:53.394Z,24.47
2018-11-03T01:26:22.391Z,23.67
2018-11-03T01:28:51.459Z,22.33
2018-11-03T01:31:20.619Z,20.97
2018-11-03T01:33:50.676Z,19.87
2018-11-03T01:36:19.734Z,26.15
2018-11-03T01:38:48.781Z,24.40
2018-11-03T01:41:17.841Z,27.48
2018-11-03T01:43:46.910Z,23.47
2018-11-03T01:46:15.972Z,28.20
2018-11-03T01:48:45.118Z,23.90
2018-11-03T01:51:14.177Z,23.07
2018-11-03T01:53:43.241Z,28.75
2018-11-03T01:56:13.271Z,23.30
2018-11-03T01:58:42.305Z,22.10
2018-11-03T02:01:11.361Z,27.17
2018-11-03T02:03:40.436Z,22.57
2018-11-03T02:06:09.509Z,22.10
2018-11-03T02:08:38.675Z,21.30
2018-11-03T02:11:07.713Z,20.13
2018-11-03T02:13:36.760Z,27.98
2018-11-03T02:16:07.721Z,21.13
2018-11-03T02:23:48.275Z,26.90
2018-11-03T02:26:17.329Z,28.12
2018-11-03T02:28:46.469Z,20.63
2018-11-03T02:31:15.533Z,22.10
2018-11-03T02:33:44.618Z,20.73
2018-11-03T02:36:13.653Z,19.80
2018-11-03T02:38:42.705Z,21.03
2018-11-03T02:41:11.745Z,20.40
2018-11-03T02:43:40.824Z,19.43
2018-11-03T02:46:09.871Z,20.67
2018-11-03T02:53:50.366Z,25.75
2018-11-03T02:58:55.121Z,26.20
2018-11-03T03:03:59.861Z,23.95
2018-11-03T03:06:30.883Z,20.53
2018-11-03T03:08:59.960Z,21.77
2018-11-03T03:14:09.509Z,22.77
2018-11-03T03:16:38.580Z,21.57
2018-11-03T03:19:07.638Z,19.97
2018-11-03T03:21:36.711Z,24.02
2018-11-03T03:24:07.758Z,23.17
2018-11-03T03:26:36.814Z,21.63
2018-11-03T03:29:06.989Z,22.10
2018-11-03T03:31:35.825Z,21.93
2018-11-03T03:36:40.592Z,24.55
2018-11-03T03:39:09.700Z,23.70
2018-11-03T03:41:38.742Z,25.12
2018-11-03T03:44:07.840Z,28.30
2018-11-03T03:46:36.925Z,24.57
2018-11-03T03:49:06.024Z,21.90
2018-11-03T03:51:36.049Z,21.73
2018-11-03T03:54:05.096Z,22.43
2018-11-03T03:59:09.860Z,24.10
2018-11-03T04:01:38.893Z,22.27
2018-11-03T04:04:07.945Z,25.05
2018-11-03T04:09:12.698Z,24.23
2018-11-03T04:11:41.750Z,20.60
2018-11-03T04:14:10.789Z,21.30
2018-11-03T04:16:39.938Z,20.50
2018-11-03T04:21:44.746Z,23.92
2018-11-03T04:24:13.904Z,21.57
2018-11-03T04:26:42.994Z,21.33
2018-11-03T04:29:12.118Z,21.10
2018-11-03T04:31:41.179Z,19.37
2018-11-03T04:36:46.483Z,23.75
2018-11-03T04:39:15.524Z,20.33
2018-11-03T04:41:44.588Z,19.17
2018-11-03T04:46:49.451Z,23.10
2018-11-03T04:51:54.214Z,23.45
2018-11-03T04:54:23.270Z,21.13
2018-11-03T04:56:52.353Z,19.47
2018-11-03T04:59:22.392Z,19.93
2018-11-03T05:01:51.413Z,17.47
2018-11-03T05:09:33.401Z,23.60
2018-11-03T05:12:02.495Z,20.20
2018-11-03T05:17:07.302Z,22.37
2018-11-03T05:22:12.054Z,22.23
2018-11-03T05:24:42.151Z,21.40
2018-11-03T05:27:11.225Z,21.80
2018-11-03T05:29:40.265Z,18.73
2018-11-03T05:32:09.331Z,19.57
2018-11-03T05:34:38.443Z,17.50
2018-11-03T05:37:07.495Z,16.90
2018-11-03T05:39:36.546Z,17.83
2018-11-03T05:42:05.593Z,18.60
2018-11-03T05:44:34.637Z,16.27
2018-11-03T05:47:04.640Z,16.80
2018-11-03T05:49:33.688Z,17.73
2018-11-03T05:52:02.806Z,16.87
2018-11-03T05:54:31.945Z,20.75
2018-11-03T05:57:01.003Z,18.20
2018-11-03T05:59:30.135Z,18.13
2018-11-03T06:04:34.948Z,21.83
2018-11-03T06:07:04.021Z,19.97
2018-11-03T06:09:33.086Z,18.30
2018-11-03T06:12:02.147Z,18.10
2018-11-03T06:14:31.192Z,19.00
2018-11-03T06:17:00.296Z,18.07
2018-11-03T06:19:29.389Z,17.43
2018-11-03T06:24:34.187Z,21.65
2018-11-03T06:27:03.240Z,18.90
2018-11-03T06:29:32.297Z,21.37
2018-11-03T06:32:01.357Z,17.50
2018-11-03T06:34:31.025Z,19.00
2018-11-03T06:37:00.142Z,17.13
2018-11-03T06:39:29.197Z,20.70
2018-11-03T06:41:58.237Z,19.20
2018-11-03T06:47:03.066Z,21.83
2018-11-03T06:49:32.140Z,19.40
2018-11-03T06:52:03.211Z,21.55
2018-11-03T06:54:32.268Z,19.43
2018-11-03T06:57:03.320Z,17.83
2018-11-03T07:02:08.073Z,19.85
2018-11-03T07:07:15.051Z,21.98
2018-11-03T07:09:44.079Z,17.80
2018-11-03T07:12:13.274Z,17.23
2018-11-03T07:14:42.226Z,18.90
2018-11-03T07:19:47.267Z,19.90
2018-11-03T07:22:19.179Z,20.58
2018-11-03T07:24:49.300Z,18.77
2018-11-03T07:27:22.166Z,16.90
2018-11-03T07:29:54.810Z,15.00
2018-11-03T07:32:27.391Z,15.07
2018-11-03T07:34:56.638Z,16.30
2018-11-03T07:37:25.619Z,15.73
2018-11-03T07:39:54.662Z,15.87
2018-11-03T07:42:23.822Z,15.50
2018-11-03T07:47:29.625Z,16.98
2018-11-03T07:49:59.629Z,15.27
2018-11-03T07:52:28.712Z,17.67
2018-11-03T07:54:58.731Z,17.83
2018-11-03T07:57:27.781Z,14.20
2018-11-03T07:59:56.945Z,14.00
2018-11-03T08:02:27.990Z,17.93
2018-11-03T08:04:57.117Z,17.17
2018-11-03T08:10:02.543Z,20.05
2018-11-03T08:12:31.597Z,16.80
2018-11-03T08:15:00.665Z,15.83
2018-11-03T08:17:29.889Z,15.20
2018-11-03T08:19:58.957Z,14.00
2018-11-03T08:22:28.147Z,14.57
2018-11-03T08:24:57.227Z,14.73
2018-11-03T08:27:26.276Z,14.40
2018-11-03T08:32:31.522Z,17.42
2018-11-03T08:35:04.536Z,16.70
2018-11-03T08:37:33.596Z,15.93
2018-11-03T08:40:02.630Z,16.20
2018-11-03T08:42:31.687Z,15.00
2018-11-03T08:45:00.790Z,16.43
2018-11-03T08:47:29.848Z,14.03
2018-11-03T08:49:58.889Z,14.27
2018-11-03T08:52:27.953Z,16.40
2018-11-03T08:54:56.991Z,14.43
2018-11-03T08:57:26.109Z,15.30
2018-11-03T09:02:30.876Z,15.00
2018-11-03T09:04:59.941Z,14.57
2018-11-03T09:07:30.959Z,14.38
2018-11-03T09:10:00.022Z,15.00
2018-11-03T09:12:29.082Z,13.83
2018-11-03T09:15:01.382Z,14.75
2018-11-03T09:17:30.405Z,15.20
2018-11-03T09:19:59.559Z,14.47
2018-11-03T09:22:28.647Z,13.50
2018-11-03T09:24:57.774Z,14.20
2018-11-03T09:27:30.250Z,12.87
2018-11-03T09:32:35.025Z,16.53
2018-11-03T09:35:04.098Z,13.93
2018-11-03T09:37:33.353Z,14.90
2018-11-03T09:40:03.391Z,15.75
2018-11-03T09:42:40.603Z,15.47
2018-11-03T09:45:17.492Z,13.30
2018-11-03T09:47:47.011Z,14.70
2018-11-03T09:50:16.375Z,13.63
2018-11-03T09:52:47.413Z,15.33
2018-11-03T09:55:16.470Z,14.20
2018-11-03T10:00:21.322Z,15.67
2018-11-03T10:02:50.367Z,16.20
2018-11-03T10:05:19.431Z,16.60
2018-11-03T10:07:48.666Z,15.30
2018-11-03T10:10:17.715Z,14.60
2018-11-03T10:12:46.821Z,15.50
2018-11-03T10:15:15.928Z,15.27
2018-11-03T10:17:45.996Z,17.00
2018-11-03T10:20:15.045Z,16.90
2018-11-03T10:22:44.258Z,15.33
2018-11-03T10:25:13.233Z,15.63
2018-11-03T10:30:19.019Z,16.75
2018-11-03T10:32:49.280Z,16.03
2018-11-03T10:35:18.340Z,17.00
2018-11-03T10:37:48.779Z,16.03
2018-11-03T10:40:23.193Z,17.70
2018-11-03T10:42:56.023Z,15.93
2018-11-03T10:45:40.445Z,18.27
2018-11-03T10:48:10.528Z,17.10
2018-11-03T10:50:40.598Z,16.53
2018-11-03T10:53:09.649Z,17.40
2018-11-03T10:55:38.715Z,18.90
2018-11-03T10:58:07.869Z,18.73
2018-11-03T11:00:36.934Z,17.90
2018-11-03T11:05:45.905Z,20.80
2018-11-03T11:11:14.868Z,19.00
2018-11-03T11:13:43.897Z,19.33
2018-11-03T11:16:13.000Z,17.73
2018-11-03T11:18:45.519Z,19.50
2018-11-03T11:26:28.135Z,18.65
2018-11-03T11:28:57.204Z,17.33
2018-11-03T11:31:26.381Z,16.97
2018-11-03T11:33:55.385Z,17.83
2018-11-03T11:39:00.211Z,17.50
2018-11-03T11:41:29.385Z,17.50
2018-11-03T11:44:03.441Z,17.60
2018-11-03T11:46:32.502Z,17.93
2018-11-03T11:49:01.571Z,17.63
2018-11-03T11:51:34.119Z,20.97
2018-11-03T11:54:03.573Z,18.20
2018-11-03T11:56:32.612Z,17.00
2018-11-03T11:59:01.689Z,17.90
2018-11-03T12:11:57.410Z,23.13
2018-11-03T12:14:26.461Z,18.87
2018-11-03T12:16:56.429Z,18.00
2018-11-03T12:19:25.497Z,20.35
2018-11-03T12:21:54.550Z,18.20
2018-11-03T12:24:23.619Z,20.10
2018-11-03T12:26:52.685Z,21.97
2018-11-03T12:31:57.541Z,19.40
2018-11-03T12:34:26.602Z,18.93
2018-11-03T12:36:55.874Z,21.27
2018-11-03T12:39:24.939Z,19.47
2018-11-03T12:41:54.003Z,21.20
2018-11-03T12:44:24.035Z,23.13
2018-11-03T12:46:53.124Z,20.13
2018-11-03T12:49:22.164Z,22.23
2018-11-03T12:51:51.248Z,20.27
2018-11-03T12:59:31.751Z,23.10
2018-11-03T13:02:00.839Z,24.23
2018-11-03T13:07:05.589Z,24.13
2018-11-03T13:09:34.694Z,24.75
2018-11-03T13:12:03.815Z,25.17
2018-11-03T13:17:08.803Z,21.80
2018-11-03T13:19:38.816Z,21.23
2018-11-03T13:22:10.015Z,20.67
2018-11-03T13:24:39.083Z,19.33
2018-11-03T13:27:08.132Z,18.43
2018-11-03T13:34:48.727Z,22.37
2018-11-03T13:37:17.765Z,20.80
2018-11-03T13:39:47.959Z,20.97
2018-11-03T13:42:17.008Z,18.97
2018-11-03T13:44:49.707Z,19.97
2018-11-03T13:47:18.836Z,20.20
2018-11-03T13:49:47.818Z,19.93
2018-11-03T13:52:16.870Z,19.10
2018-11-03T13:54:47.916Z,21.20
2018-11-03T13:57:16.969Z,21.67
2018-11-03T13:59:46.017Z,20.73
2018-11-03T14:02:15.077Z,23.83
2018-11-03T14:04:44.184Z,21.30
2018-11-03T14:07:13.254Z,18.83
2018-11-03T14:09:43.315Z,18.30
2018-11-03T14:12:13.356Z,17.53
2018-11-03T14:14:42.402Z,19.27
2018-11-03T14:17:11.551Z,21.90
2018-11-03T14:19:40.558Z,20.63
2018-11-03T14:22:09.663Z,19.27
2018-11-03T14:24:38.721Z,20.33
2018-11-03T14:27:08.756Z,18.23
2018-11-03T14:29:37.816Z,18.70
2018-11-03T14:32:06.900Z,19.43
2018-11-03T14:34:37.917Z,19.37
2018-11-03T14:37:07.204Z,19.60
2018-11-03T14:39:36.255Z,18.10
2018-11-03T14:42:05.324Z,19.67
2018-11-03T14:44:34.385Z,21.20
2018-11-03T14:47:03.441Z,20.90
2018-11-03T14:49:32.508Z,17.80
2018-11-03T14:52:01.554Z,18.83
2018-11-03T14:57:07.515Z,22.85
2018-11-03T14:59:36.591Z,23.08
2018-11-03T15:02:05.645Z,20.40
2018-11-03T15:04:36.782Z,20.40
2018-11-03T15:07:07.770Z,22.77
2018-11-03T15:12:13.050Z,20.87
2018-11-03T15:14:42.222Z,19.47
2018-11-03T15:17:11.286Z,15.90
2018-11-03T15:19:40.360Z,17.93
2018-11-03T15:22:12.656Z,19.17
2018-11-03T15:24:41.693Z,18.00
2018-11-03T15:27:19.604Z,16.33
2018-11-03T15:29:48.685Z,18.20
2018-11-03T15:32:18.722Z,17.40
2018-11-03T15:34:47.812Z,16.23
2018-11-03T15:37:16.823Z,16.10
2018-11-03T15:39:45.892Z,16.43
2018-11-03T15:42:14.941Z,20.62
2018-11-03T15:44:44.014Z,18.30
2018-11-03T15:47:14.033Z,17.50
2018-11-03T15:49:45.078Z,16.10
2018-11-03T15:52:14.133Z,18.27
2018-11-03T15:54:44.225Z,18.00
2018-11-03T15:57:14.218Z,21.00
2018-11-03T15:59:43.279Z,21.40
2018-11-03T16:02:12.337Z,18.90
2018-11-03T16:04:46.249Z,23.30
2018-11-03T16:09:52.135Z,22.17
2018-11-03T16:12:21.522Z,23.20
2018-11-03T16:14:50.439Z,24.67
2018-11-03T16:17:19.507Z,25.33
2018-11-03T16:19:48.711Z,22.20
2018-11-03T16:22:19.643Z,21.07
2018-11-03T16:24:48.708Z,20.77
2018-11-03T16:29:54.453Z,25.48
2018-11-03T16:32:23.725Z,23.97
2018-11-03T16:34:52.584Z,23.60
2018-11-03T16:37:21.621Z,24.13
2018-11-03T16:39:50.736Z,24.27
2018-11-03T16:42:19.818Z,24.57
2018-11-03T16:44:48.882Z,23.37
2018-11-03T16:47:17.943Z,24.30
2018-11-03T16:49:47.951Z,24.50
2018-11-03T16:52:17.068Z,22.13
2018-11-03T16:54:54.019Z,24.03
2018-11-03T16:57:23.094Z,25.17
2018-11-03T16:59:52.156Z,25.23
2018-11-03T17:02:22.187Z,27.27
2018-11-03T17:04:51.404Z,28.57
2018-11-03T17:07:21.488Z,30.42
2018-11-03T17:09:51.484Z,31.25
2018-11-03T17:12:20.603Z,28.80
2018-11-03T17:14:49.599Z,26.70
2018-11-03T17:17:18.655Z,32.45
2018-11-03T17:19:47.786Z,32.23
2018-11-03T17:22:17.861Z,28.60
2018-11-03T17:24:46.933Z,27.50
2018-11-03T17:29:51.686Z,34.37
2018-11-03T17:32:20.744Z,29.20
2018-11-03T17:34:50.825Z,30.33
2018-11-03T17:39:56.618Z,34.10
2018-11-03T17:42:26.659Z,29.53
2018-11-03T17:44:55.706Z,29.20
2018-11-03T17:47:24.760Z,29.17
2018-11-03T17:49:53.994Z,28.50
2018-11-03T17:57:34.519Z,37.20
2018-11-03T18:00:05.554Z,32.23
2018-11-03T18:02:34.568Z,37.47
2018-11-03T18:05:03.614Z,32.23
2018-11-03T18:07:34.634Z,34.40
2018-11-03T18:10:03.694Z,29.13
2018-11-03T18:12:32.751Z,27.93
2018-11-03T18:15:01.798Z,26.13
2018-11-03T18:17:30.982Z,27.70
2018-11-03T18:22:39.279Z,29.03
2018-11-03T18:25:08.324Z,27.27
2018-11-03T18:27:37.393Z,26.30
2018-11-03T18:30:06.452Z,26.20
2018-11-03T18:32:35.499Z,27.60
2018-11-03T18:35:05.504Z,23.77
2018-11-03T18:37:34.577Z,24.87
2018-11-03T18:40:05.542Z,28.77
2018-11-03T18:42:34.582Z,25.53
2018-11-03T18:45:04.459Z,23.73
2018-11-03T18:47:33.493Z,29.03
2018-11-03T18:50:06.338Z,26.57
2018-11-03T18:52:35.373Z,31.45
2018-11-03T18:55:04.442Z,29.10
2018-11-03T18:57:33.500Z,27.50
2018-11-03T19:00:06.424Z,26.77
2018-11-03T19:02:35.525Z,33.00
2018-11-03T19:05:04.525Z,29.23
2018-11-03T19:07:35.573Z,26.83
2018-11-03T19:10:06.516Z,27.53
2018-11-03T19:12:37.541Z,26.37
2018-11-03T19:15:06.598Z,26.70
2018-11-03T19:17:35.648Z,26.57
2018-11-03T19:20:04.799Z,26.97
2018-11-03T19:22:33.830Z,31.07
2018-11-03T19:25:02.895Z,34.37
2018-11-03T19:32:43.379Z,41.67
2018-11-03T19:40:23.935Z,36.23
2018-11-03T19:42:52.935Z,30.40
2018-11-03T19:45:22.056Z,28.40
2018-11-03T19:47:51.041Z,27.47
2018-11-03T19:50:20.090Z,26.90
2018-11-03T19:52:49.180Z,26.20
2018-11-03T19:55:18.241Z,30.52
2018-11-03T19:57:47.441Z,25.03
2018-11-03T20:00:16.487Z,22.80
2018-11-03T20:02:46.600Z,22.70
2018-11-03T20:07:51.261Z,25.23
2018-11-03T20:10:20.335Z,24.17
2018-11-03T20:12:49.412Z,23.65
2018-11-03T20:15:18.460Z,21.60
2018-11-03T20:17:50.500Z,20.00
2018-11-03T20:20:23.561Z,19.20
2018-11-03T20:22:52.609Z,20.03
2018-11-03T20:25:21.669Z,18.13
2018-11-03T20:27:50.721Z,22.08
2018-11-03T20:30:21.693Z,20.00
2018-11-03T20:32:50.745Z,21.10
2018-11-03T20:35:19.821Z,19.63
2018-11-03T20:40:24.584Z,23.20
2018-11-03T20:42:53.660Z,21.20
2018-11-03T20:45:22.724Z,19.03
2018-11-03T20:47:51.776Z,19.67
2018-11-03T20:52:58.650Z,21.13
2018-11-03T20:55:29.597Z,23.10
2018-11-03T20:57:59.794Z,22.40
2018-11-03T21:00:28.855Z,21.40
2018-11-03T21:02:57.926Z,19.83
2018-11-03T21:05:28.949Z,23.90
2018-11-03T21:07:58.059Z,22.17
2018-11-03T21:10:27.150Z,20.80
2018-11-03T21:12:56.193Z,21.70
2018-11-03T21:15:25.258Z,20.37
2018-11-03T21:17:54.294Z,22.30
2018-11-03T21:20:23.357Z,21.33
2018-11-03T21:22:55.610Z,26.00
2018-11-03T21:25:26.684Z,23.30
2018-11-03T21:27:55.708Z,21.30
2018-11-03T21:30:25.777Z,21.77
2018-11-03T21:32:55.972Z,27.40
2018-11-03T21:35:26.792Z,24.90
2018-11-03T21:37:55.843Z,23.30
2018-11-03T21:40:24.912Z,28.17
2018-11-03T21:42:53.985Z,26.67
2018-11-03T21:45:24.978Z,23.17
2018-11-03T21:47:54.052Z,23.60
2018-11-03T21:52:58.877Z,26.20
2018-11-03T21:55:27.924Z,26.08
2018-11-03T21:57:56.983Z,26.00
2018-11-03T22:00:26.026Z,21.63
2018-11-03T22:05:31.772Z,29.37
2018-11-03T22:08:00.843Z,25.25
2018-11-03T22:10:31.837Z,26.65
2018-11-03T22:13:01.037Z,21.70
2018-11-03T22:15:30.097Z,22.73
2018-11-03T22:17:59.296Z,20.77
2018-11-03T22:20:28.572Z,21.27
2018-11-03T22:22:57.670Z,26.02
2018-11-03T22:25:26.711Z,24.53
2018-11-03T22:27:55.864Z,22.60
2018-11-03T22:30:24.873Z,21.90
2018-11-03T22:32:54.063Z,26.50
2018-11-03T22:35:23.148Z,22.17
2018-11-03T22:37:52.244Z,22.60
2018-11-03T22:40:21.325Z,21.73
2018-11-03T22:42:50.364Z,24.00
2018-11-03T22:45:19.421Z,22.50
2018-11-03T22:50:26.796Z,26.67
2018-11-03T22:55:37.577Z,25.90
2018-11-03T23:00:44.367Z,25.90
2018-11-03T23:03:13.449Z,26.75
2018-11-03T23:05:44.495Z,23.90
2018-11-03T23:08:15.517Z,21.97
2018-11-03T23:10:44.569Z,21.30
2018-11-03T23:13:13.714Z,24.13
2018-11-03T23:15:42.691Z,23.60
2018-11-03T23:20:48.443Z,26.33
2018-11-03T23:23:17.512Z,28.50
2018-11-03T23:25:47.492Z,30.42
2018-11-03T23:28:16.549Z,23.50
2018-11-03T23:33:21.301Z,28.33
2018-11-03T23:35:57.931Z,24.07
2018-11-03T23:38:27.976Z,24.23
2018-11-03T23:40:57.001Z,24.07
2018-11-03T23:43:26.048Z,25.10
2018-11-03T23:45:56.109Z,29.05
2018-11-03T23:48:25.141Z,23.93
2018-11-03T23:53:29.965Z,27.67
2018-11-03T23:55:59.009Z,28.27
2018-11-03T23:58:31.081Z,28.75
